Latest Weather Observations for Hervey Bay

IDQ60801

Issued at 10:02 pm EST Sunday 1 March 2015 (issued every 30 minutes, with the page automatically refreshed every 10 minutes)

About weather observations | Map of weather stations | Latest weather observations for QLD | Other Formats
Station Details ID: 040405 Name: HERVEY BAY AIRPORT Lat: -25.32 Lon: 152.88 Height: 12.98 m
Data from the previous 72 hours. | See also: Recent months at Hervey Bay
Date/Time
EST
Temp
°C
App
Temp
°C
Dew
Point
Rel
Hum
%
Delta-T
°C
Wind Press
QNH
hPa
Press
MSL
hPa
Rain
since 9 am
mm
Dir
 
Spd
km/h
Gust
km/h
Spd
kts
Gust
kts
01/10:00pm 25.4 27.5 20.9 76 3.0 ENE 11 15 6 8 1010.0 1009.9 0.0
01/09:30pm 25.6 28.1 21.1 76 3.0 ENE 9 13 5 7 1010.2 1010.1 0.0
01/09:00pm 25.5 27.6 21.0 76 3.0 E 11 13 6 7 1010.4 1010.3 0.0
01/08:30pm 25.7 27.4 20.9 75 3.2 ENE 13 17 7 9 1009.8 1009.7 0.0
01/08:00pm 26.0 27.6 20.8 73 3.4 ENE 13 17 7 9 1009.3 1009.2 0.0
01/07:30pm 26.0 27.4 21.0 74 3.3 ENE 15 19 8 10 1009.2 1009.1 0.0
01/07:00pm 26.3 27.9 20.8 71 3.6 ENE 13 19 7 10 1008.9 1008.8 0.0
01/06:30pm 26.6 27.8 20.7 70 3.9 E 15 20 8 11 1008.8 1008.7 0.0
01/06:00pm 27.1 27.9 20.7 68 4.2 E 17 20 9 11 1008.4 1008.3 0.0
01/05:30pm 27.6 28.5 20.9 67 4.4 E 17 20 9 11 1008.1 1008.0 0.0
01/05:00pm 28.6 30.4 21.1 64 5.0 ENE 13 20 7 11 1007.9 1007.8 0.0
01/04:30pm 29.0 30.4 20.4 59 5.7 NE 13 20 7 11 1007.7 1007.6 0.0
01/04:00pm 29.2 30.7 21.2 62 5.3 NE 15 22 8 12 1007.6 1007.5 0.0
01/03:30pm 30.3 31.3 21.1 58 6.1 ENE 17 24 9 13 1007.7 1007.6 0.0
01/03:00pm 29.7 30.4 19.7 55 6.6 E 15 20 8 11 1007.9 1007.8 0.0
01/02:30pm 30.4 30.9 20.0 53 6.8 E 17 24 9 13 1008.0 1007.9 0.0
01/02:00pm 31.0 31.5 20.9 55 6.8 E 19 26 10 14 1008.1 1008.0 0.0
01/01:30pm 30.6 30.8 20.5 54 6.7 E 20 30 11 16 1008.5 1008.4 0.0
01/01:00pm 30.9 30.8 19.6 51 7.4 E 19 24 10 13 1008.7 1008.6 0.0
01/12:30pm 30.8 31.5 20.4 54 6.9 E 17 24 9 13 1009.1 1009.0 0.0
01/12:00pm 30.9 31.4 19.3 50 7.6 ESE 15 19 8 10 1009.5 1009.4 0.0
01/11:30am 30.3 30.4 18.4 49 7.7 E 15 20 8 11 1009.8 1009.7 0.0
01/11:00am 30.3 31.1 19.0 50 7.3 ESE 13 19 7 10 1010.1 1010.0 0.0
01/10:30am 29.4 30.6 19.1 54 6.7 ENE 11 15 6 8 1010.6 1010.5 0.0
01/10:00am 29.4 30.9 19.7 56 6.3 E 11 17 6 9 1010.7 1010.6 0.0
01/09:30am 28.7 30.8 19.3 56 6.1 E 7 13 4 7 1010.9 1010.8 0.0
01/09:00am 28.1 29.7 19.9 61 5.4 ESE 11 19 6 10 1010.9 1010.8 0.0
01/08:30am 27.8 30.6 20.4 64 4.9 SE 6 11 3 6 1010.7 1010.6 0.0
01/07:30am 25.0 28.3 21.5 81 2.3 S 6 9 3 5 1010.0 1009.9 0.0
01/07:00am 23.1 25.5 20.8 87 1.5 SSW 9 11 5 6 1010.0 1009.9 0.0
01/06:30am 21.8 24.4 20.4 92 0.9 SSW 7 9 4 5 1009.9 1009.8 0.0
01/06:00am 21.2 23.9 20.2 94 0.6 SW 6 7 3 4 1009.9 1009.8 0.0
01/05:30am 20.8 23.2 19.6 93 0.8 WSW 6 7 3 4 1009.6 1009.5 0.0
01/05:00am 21.1 23.4 19.9 93 0.8 SW 7 9 4 5 1009.4 1009.3 0.0
01/04:30am 21.2 23.7 20.2 94 0.6 SSW 7 11 4 6 1009.4 1009.3 0.0
01/04:00am 21.1 23.2 20.1 94 0.6 SSW 9 11 5 6 1009.2 1009.1 0.0
01/03:30am 20.7 23.8 19.4 92 0.8 SW 2 7 1 4 1009.1 1009.0 0.0
01/03:00am 20.9 23.7 19.6 92 0.8 W 4 6 2 3 1008.9 1008.8 0.0
01/02:30am 21.3 24.9 19.8 91 1.0 CALM 0 0 0 0 1008.9 1008.8 0.0
01/02:00am 21.4 25.1 20.0 92 0.9 CALM 0 0 0 0 1009.2 1009.1 0.0
01/01:30am 21.7 24.2 20.3 92 0.9 SSW 7 9 4 5 1009.7 1009.6 0.0
01/01:00am 21.6 25.4 20.1 91 1.0 CALM 0 7 0 4 1010.0 1009.9 0.0
01/12:30am 22.1 24.9 20.4 90 1.1 SSE 6 7 3 4 1010.2 1010.1 0.0
 
Date/Time
EST
Temp
°C
App
Temp
°C
Dew
Point
Rel
Hum
%
Delta-T
°C
Wind Press
QNH
hPa
Press
MSL
hPa
Rain
since 9 am
mm
Dir
 
Spd
km/h
Gust
km/h
Spd
kts
Gust
kts
28/11:30pm 23.2 27.2 20.5 85 1.8 CALM 0 0 0 0 1010.8 1010.7 0.0
28/11:00pm 23.8 26.6 20.5 82 2.1 SSE 6 7 3 4 1011.0 1010.9 0.0
28/10:30pm 24.7 26.9 20.4 77 2.8 E 9 11 5 6 1011.0 1010.9 0.0
28/10:00pm 25.3 27.5 20.3 74 3.3 E 9 13 5 7 1010.9 1010.8 0.0
28/09:30pm 25.6 27.1 20.6 74 3.3 E 13 17 7 9 1010.7 1010.6 0.0
28/09:00pm 25.7 27.2 20.5 73 3.4 E 13 19 7 10 1010.7 1010.6 0.0
28/08:30pm 25.7 26.8 20.5 73 3.4 E 15 20 8 11 1010.7 1010.6 0.0
28/08:00pm 25.7 27.3 20.7 74 3.3 E 13 17 7 9 1010.5 1010.4 0.0
28/07:30pm 26.0 26.8 20.6 72 3.5 E 17 22 9 12 1010.2 1010.1 0.0
28/07:00pm 26.1 27.3 20.7 72 3.6 E 15 20 8 11 1009.7 1009.6 0.0
28/06:30pm 26.4 26.7 20.3 69 4.0 E 19 24 10 13 1009.4 1009.3 0.0
28/06:00pm 26.7 26.7 20.1 67 4.3 ESE 20 26 11 14 1009.2 1009.1 0.0
28/05:30pm 27.7 28.0 20.3 64 4.9 ESE 19 28 10 15 1008.8 1008.7 0.0
28/05:00pm 28.5 28.7 20.5 62 5.3 ESE 20 28 11 15 1008.6 1008.5 0.0
28/04:30pm 29.3 29.2 19.9 57 6.2 E 20 28 11 15 1008.2 1008.1 0.0
28/04:00pm 29.4 29.1 20.3 58 6.0 ESE 22 30 12 16 1008.1 1008.0 0.0
28/03:30pm 29.6 29.0 20.5 58 6.0 E 24 32 13 17 1008.0 1007.9 0.0
28/03:00pm 29.9 29.2 19.6 54 6.7 ESE 22 30 12 16 1008.2 1008.1 0.0
28/02:30pm 30.4 30.1 20.3 54 6.7 E 22 37 12 20 1008.3 1008.2 0.0
28/02:00pm 30.7 29.8 19.1 50 7.6 E 22 30 12 16 1008.5 1008.4 0.0
28/01:30pm 30.2 30.2 18.9 50 7.3 ESE 17 26 9 14 1008.7 1008.6 0.0
28/01:00pm 30.3 30.7 18.1 48 7.8 ESE 13 24 7 13 1009.1 1009.0 0.0
28/12:30pm 30.8 30.7 18.8 48 7.8 E 17 22 9 12 1009.4 1009.3 0.0
28/12:00pm 30.2 30.0 18.6 49 7.5 E 17 24 9 13 1009.6 1009.5 0.0
28/11:30am 30.4 30.7 18.8 50 7.5 ESE 15 26 8 14 1010.0 1009.9 0.0
28/11:00am 29.9 29.8 18.7 51 7.2 E 17 20 9 11 1010.3 1010.2 0.0
28/10:30am 29.6 30.1 18.4 51 7.2 ENE 13 17 7 9 1010.5 1010.4 0.0
28/10:00am 29.0 30.1 18.1 51 7.0 SE 9 15 5 8 1010.7 1010.6 0.0
28/09:30am 28.4 30.0 19.1 57 6.0 SE 9 13 5 7 1010.7 1010.6 0.0
28/09:00am 27.5 30.2 20.6 66 4.5 SSW 7 13 4 7 1010.7 1010.6 0.0
28/08:30am 26.6 28.9 20.7 70 3.9 SSW 9 15 5 8 1010.8 1010.7 0.0
28/08:00am 25.9 28.0 20.9 74 3.3 SSW 11 13 6 7 1010.5 1010.4 0.0
28/07:30am 24.4 27.2 20.5 79 2.5 SSW 6 9 3 5 1010.1 1010.0 0.0
28/07:00am 22.8 24.6 20.3 86 1.6 SSW 11 13 6 7 1010.1 1010.0 0.0
28/06:30am 21.6 23.7 20.1 91 1.0 SSW 9 13 5 7 1009.9 1009.8 0.0
28/06:00am 21.1 23.7 20.1 94 0.6 WSW 6 9 3 5 1009.5 1009.4 0.0
28/05:30am 21.0 23.6 20.0 94 0.6 SW 6 9 3 5 1009.4 1009.3 0.0
28/05:00am 20.6 23.3 19.4 93 0.8 SW 4 7 2 4 1009.0 1008.9 0.0
28/04:30am 20.9 24.3 19.4 91 1.0 CALM 0 0 0 0 1008.5 1008.4 0.0
28/04:00am 21.3 25.0 19.9 92 0.9 CALM 0 0 0 0 1008.5 1008.4 0.0
28/03:30am 21.5 24.1 20.1 92 0.9 SW 6 7 3 4 1008.9 1008.8 0.0
28/03:00am 21.6 23.7 20.2 92 0.9 SSW 9 11 5 6 1008.8 1008.7 0.0
28/02:30am 21.8 25.7 20.4 92 0.9 CALM 0 6 0 3 1009.0 1008.9 0.0
28/02:00am 21.5 24.2 20.3 93 0.8 SSW 6 7 3 4 1009.1 1009.0 0.0
28/01:30am 21.2 23.6 19.7 91 1.0 WSW 6 9 3 5 1009.2 1009.1 0.0
28/01:00am 21.9 25.7 20.2 90 1.1 CALM 0 0 0 0 1009.0 1008.9 0.0
28/12:30am 21.9 25.3 20.2 90 1.1 W 2 6 1 3 1009.5 1009.4 0.0
28/12:00am 22.2 26.0 20.1 88 1.4 CALM 0 0 0 0 1009.4 1009.3 0.0
 
Date/Time
EST
Temp
°C
App
Temp
°C
Dew
Point
Rel
Hum
%
Delta-T
°C
Wind Press
QNH
hPa
Press
MSL
hPa
Rain
since 9 am
mm
Dir
 
Spd
km/h
Gust
km/h
Spd
kts
Gust
kts
27/11:30pm 22.8 25.4 20.1 85 1.7 S 6 6 3 3 1009.4 1009.3 0.0
27/11:00pm 24.6 26.8 20.3 77 2.8 E 9 15 5 8 1009.5 1009.4 0.0
27/10:30pm 24.1 26.7 20.4 80 2.4 E 7 9 4 5 1009.7 1009.6 0.0
27/10:00pm 24.8 27.0 20.5 77 2.8 E 9 13 5 7 1009.6 1009.5 0.0
27/09:30pm 25.1 26.5 20.4 75 3.1 E 13 17 7 9 1009.3 1009.2 0.0
27/09:00pm 25.2 26.7 20.5 75 3.1 E 13 17 7 9 1009.1 1009.0 0.0
27/08:30pm 25.2 26.7 20.5 75 3.1 E 13 20 7 11 1009.1 1009.0 0.0
27/08:00pm 25.5 26.9 20.3 73 3.4 E 13 19 7 10 1008.9 1008.8 0.0
27/07:30pm 25.5 26.0 20.1 72 3.5 E 17 22 9 12 1008.6 1008.5 0.0
27/07:00pm 25.8 26.2 19.9 70 3.8 E 17 22 9 12 1008.0 1007.9 0.0
27/06:30pm 26.1 27.0 20.0 69 4.0 E 15 22 8 12 1007.7 1007.6 0.0
27/06:00pm 26.8 27.1 19.7 65 4.6 E 17 20 9 11 1007.4 1007.3 0.0
27/05:30pm 27.6 27.3 19.1 59 5.5 E 19 24 10 13 1007.0 1006.9 0.0
27/05:00pm 28.3 28.0 19.2 57 5.9 E 19 22 10 12 1007.0 1006.9 0.0
27/04:30pm 28.9 28.3 19.8 58 6.0 E 22 30 12 16 1006.6 1006.5 0.0
27/04:00pm 29.2 28.4 19.2 54 6.5 E 22 30 12 16 1006.2 1006.1 0.0
27/03:30pm 29.7 29.5 19.4 54 6.7 E 19 24 10 13 1006.1 1006.0 0.0
27/03:00pm 29.9 30.1 19.3 53 6.9 E 17 22 9 12 1006.2 1006.1 0.0
27/02:30pm 29.9 31.1 19.0 52 7.1 ENE 11 15 6 8 1006.4 1006.3 0.0
27/02:00pm 29.4 30.1 19.7 56 6.4 E 15 20 8 11 1006.9 1006.8 0.0
27/01:30pm 30.0 30.2 19.4 53 6.9 ENE 17 22 9 12 1007.0 1006.9 0.0
27/01:00pm 29.6 31.4 18.4 51 7.2 ENE 6 11 3 6 1007.2 1007.1 0.0
27/12:30pm 29.7 31.0 18.5 51 7.2 NNE 9 13 5 7 1007.5 1007.4 0.0
27/12:00pm 27.8 29.5 18.5 57 6.0 N 7 11 4 6 1007.7 1007.6 0.0
27/11:30am 27.9 29.4 19.7 61 5.3 ENE 11 17 6 9 1007.7 1007.6 0.0
27/11:00am 28.7 30.9 19.1 56 6.2 NNE 6 11 3 6 1008.4 1008.3 0.0
27/10:30am 27.4 29.0 19.2 61 5.3 ENE 9 17 5 9 1009.0 1008.9 0.0
27/10:00am 27.7 29.2 19.8 62 5.2 S 11 15 6 8 1009.7 1009.6 0.0
27/09:30am 27.5 28.0 19.3 61 5.3 S 15 26 8 14 1010.1 1010.0 0.0
27/09:00am 26.4 26.7 20.3 69 4.0 SSW 19 30 10 16 1010.5 1010.4 0.2
27/08:30am 26.4 26.9 20.0 68 4.2 S 17 24 9 13 1010.4 1010.3 0.2
27/08:00am 25.7 27.1 21.1 76 3.0 SSW 15 20 8 11 1010.2 1010.1 0.2
27/07:30am 24.7 26.4 21.0 80 2.4 SSW 13 19 7 10 1010.1 1010.0 0.2
27/07:00am 23.4 24.9 20.5 84 1.9 SSW 13 17 7 9 1009.6 1009.5 0.2
27/06:30am 21.6 23.3 20.2 92 0.9 SSW 11 15 6 8 1008.8 1008.7 0.2
27/06:00am 20.4 22.6 19.2 93 0.8 WSW 6 7 3 4 1007.9 1007.8 0.2
27/05:30am 20.4 22.6 19.2 93 0.8 WSW 6 7 3 4 1007.6 1007.5 0.2
27/05:00am 20.7 22.9 19.5 93 0.8 SSW 7 9 4 5 1007.6 1007.5 0.2
27/04:30am 20.4 22.6 19.1 92 0.8 SSW 6 7 3 4 1007.5 1007.4 0.2
27/04:00am 20.4 23.7 19.1 92 0.8 CALM 0 0 0 0 1007.3 1007.2 0.2
27/03:30am 20.9 24.3 19.4 91 1.0 CALM 0 2 0 1 1007.0 1006.9 0.2
27/03:00am 21.3 23.8 19.8 91 1.0 SW 6 9 3 5 1007.6 1007.5 0.2
27/02:30am 21.5 24.0 19.8 90 1.1 SW 6 9 3 5 1007.6 1007.5 0.2
27/02:00am 21.6 24.1 19.9 90 1.1 SW 6 7 3 4 1007.5 1007.4 0.2
27/01:30am 21.9 24.9 20.0 89 1.2 SW 4 6 2 3 1007.3 1007.2 0.2
27/01:00am 22.5 26.2 20.0 86 1.6 CALM 0 0 0 0 1007.5 1007.4 0.2
27/12:30am 23.0 26.0 20.1 84 1.9 NW 4 7 2 4 1008.0 1007.9 0.2
27/12:00am 23.8 26.2 19.7 78 2.6 SE 6 7 3 4 1008.0 1007.9 0.2
 
Date/Time
EST
Temp
°C
App
Temp
°C
Dew
Point
Rel
Hum
%
Delta-T
°C
Wind Press
QNH
hPa
Press
MSL
hPa
Rain
since 9 am
mm
Dir
 
Spd
km/h
Gust
km/h
Spd
kts
Gust
kts
26/11:30pm 24.8 26.9 20.1 75 3.0 ESE 9 15 5 8 1008.2 1008.1 0.2
26/11:00pm 25.0 26.4 20.3 75 3.1 E 13 20 7 11 1008.4 1008.3 0.2
26/10:30pm 24.6 25.0 19.9 75 3.0 E 17 22 9 12 1008.2 1008.1 0.2

Other Formats:

Comma delimited format used in spreadsheet applications
http://www.bom.gov.au/fwo/IDQ60801/IDQ60801.95565.axf

JavaScript Object Notation format (JSON) in row-major order
http://www.bom.gov.au/fwo/IDQ60801/IDQ60801.95565.json